KNKX/NKX METAR and TAF weather

Enter ICAO airport designator
Station Type Date Time Source
KNKX METAR 2021/07/24 20:55 UTC NOAA

KNKX 242055Z 26005KT 10SM CLR 24/17 A3001 RMK AO2 SLP158 T02390172 58004 $


Station Type Date Time Source
KNKX Decoded METAR 2021/07/24 20:55 UTC NOAA

MCAS MIRAMAR, CA, United States (KNKX) 32-52N 117-09W 146M
Jul 24, 2021 - 04:55 PM EDT / 2021.07.24 2055 UTC
Wind: from the W (260 degrees) at 6 MPH (5 KT):0
Visibility: 10 mile(s):0
Sky conditions: clear
Temperature: 75.0 F (23.9 C)
Dew Point: 63.0 F (17.2 C)
Relative Humidity: 66%
Pressure (altimeter): 30.01 in. Hg (1016 hPa)
Pressure tendency: 0.01 inches (0.4 hPa) lower than three hours ago
ob: KNKX 242055Z 26005KT 10SM CLR 24/17 A3001 RMK AO2 SLP158 T02390172 58004
cycle: 21

Station Type Date Time Source
KNKX TAF 2021/07/24 15:59 UTC NOAA

TAF KNKX 2415/2515 VRB05KT 9999 BKN010 QNH3003INS
BECMG 2415/2417 VRB06KT 9999 SCT250 QNH3002INS
FM241930 21010KT 9999 SCT250 QNH2997INS
BECMG 2502/2504 VRB05KT 9999 FEW010 BKN250 QNH2996INS
BECMG 2506/2508 VRB05KT 9999 BKN010 QNH2998INS T26/2421Z T18/2514Z

Example: see airport list